Terminal Aerodrome Forecast
Issued by NWS

Home | Current Version | Previous Version | Text Only | Print | Product List | Glossary On
Versions: 1 2 3 4 5 6 7 8 9 10 11 12 13 14 15 16
000
FTUS46 KSEW 200500
TAFCLM
TAF
KCLM 200520Z 2006/2106 28007KT P6SM -SHRA BKN035 BKN070
     FM201000 25005KT P6SM VCSH SCT040 BKN070
     FM201200 VRB04KT P6SM SCT050 BKN080
     FM201800 VRB04KT P6SM FEW080 SCT120=

USA.gov is the U.S. government's official web portal to all federal, state and local government web resources and services.